Current Conditions

Updated: 20-Nov-2019 04:15 AM  
Summary / Temperature Wind Rain






Feels like: 50°F

1-hour difference
0.3°F 0.3°F warmer than last hour.

24-hour difference
3.0°F3.0°F warmer than yesterday at this time.

  Today Yesterday
High: 52.3°F
12:00 AM
73.3°F
12:15 PM
Low: 46.7°F
1:43 AM
42.5°F
6:21 AM
Calm SE
0.0
Gust:  0.0 mph
0 Beaufort - Calm

Today: 2.3 - 2:56 AM
Month: 7.0 mph - Nov 19
Rain Today: 0.00 in
Current Rate (/hr): 0.000 in
Max Rate (/hr):
Rain Yesterday: 0.00 in
Storm Rain: 0.00 in
This Month: 0.00 in
Season Total: 0.00 in
Last Rain Event: 174 days ago
Humidity / Barometer Sun / Moon
Humidity: 87  
Dew Point: 45.8°F Increased 0.3°F in the last hour.
Barometer: 29.513 inHg  
Baro Trend: Steady
Sunrise: 6:38 AM
Sunset: 4:46 PM
Moonrise: 11:45 PM
Moonset: 1:25 PM
Sky Conditions UV Index
Summary: Clear
Visibility: 10 miles
Clouds: None
KVIS - 3:56 AM PST
Current: 0.0  None 
Wednesday: 2.4  Low 
Thursday: 2.4  Low 
Air Quality Fire Danger
 Good 
Ozone 15 ppb
PM 2.5 6 μg/m3
4:10 AM PST
Current: 0  Low 

Local Alerts Local Forecast
Local NWS Alerts
Today

Rain

High 59
Tonight

Rain
Showers
Low 41
Thu

Mostly
Sunny
High 63
Thu night

Mostly
Clear
Low 39
Fri

Partly
Cloudy
High 64
Fri night

Mostly
Clear
Low 38
Sat

Mostly
Sunny
High 64

Local Radar Local Satellite Neighborhood Cam Sky Cam
Local Radar Local Satellite Neighborhood Cam Sky Cam


Nearby Airport Stations

KVIS - Visalia, California, USA
Distance from station: W 14mi, 23km
Updated: Wed, 20-Nov-2019 3:56am PST
Clear
Clear
 Wind from calm
Wind: Calm
Temperature: 45°F , 7°C
Dew Point: 41°F , 5°C
Humidity: 87%
Barometer: 29.53 inHg , 1000 hPa
Clouds: Clear
Visibility: 10 miles , 16 km
2019/11/20 11:56 KVIS 201156Z AUTO 00000KT 10SM CLR 07/05 A2953 RMK AO2 SLP009 T00720050 10128 20067 53001
KPTV - Porterville, California, USA
Distance from station: SSE 19mi, 31km
Updated: Wed, 20-Nov-2019 3:56am PST
Overcast
Overcast
 Wind from ESE
Wind: ESE 5 mph , 7 km/h
Temperature: 52°F , 11°C
Dew Point: 43°F , 6°C
Humidity: 72%
Barometer: 29.53 inHg , 1000 hPa
Clouds: Overcast
Visibility: 10 miles , 16 km
Cloud details: Partly cloudy 3900 ft
Overcast 4700 ft
2019/11/20 11:56 KPTV 201156Z AUTO 11004KT 10SM SCT039 OVC047 11/06 A2953 RMK AO2 SLP000 T01060056 10128 20089 58002

Metar display script from Saratoga-Weather.org



Visitor Map